ZRH weather

Z├╝rich Airport
Zurich, Canton of Zurich, Switzerland

Public forecast

Using degrees Celsius for public forecast. Weather courtesy of forecast.io.

METAR (pilot weather report)

Retrieved 2018/02/18 23:20 UTC (24 minutes ago):

LSZH 182320Z 31004KT 7000 FEW013 OVC032 M00/M02 Q1021 NOSIG

TAF (pilot weather forecast)

Retrieved 2018/02/18 21:33 UTC (2 hours ago):

TAF LSZH 182025Z 1821/2003 04006KT 9999 FEW018 BKN030 TX02/1914Z TNM01/1906Z BECMG 1821/1824 VRB03KT TEMPO 1902/1909 BKN012 BECMG 1909/1912 BKN016 TEMPO 1914/1921 SCT018 PROB40 1915/1919 CAVOK BECMG 2000/2003 4000 BR BKN010